createdAt,value
2022-09-02T00:01:24.382Z,1.50
2022-09-02T00:04:05.428Z,1.20
2022-09-02T00:06:33.416Z,1.40
2022-09-02T00:09:01.139Z,1.50
2022-09-02T00:11:30.923Z,1.40
2022-09-02T00:14:06.517Z,1.77
2022-09-02T00:16:33.415Z,1.63
2022-09-02T00:19:02.656Z,1.40
2022-09-02T00:21:30.696Z,1.50
2022-09-02T00:23:57.122Z,1.80
2022-09-02T00:26:24.574Z,1.50
2022-09-02T00:28:56.327Z,1.70
2022-09-02T00:31:27.438Z,1.50
2022-09-02T00:33:54.657Z,1.70
2022-09-02T00:36:21.643Z,1.40
2022-09-02T00:38:48.351Z,1.67
2022-09-02T00:41:15.396Z,1.40
2022-09-02T00:43:57.827Z,1.47
2022-09-02T00:46:26.935Z,1.50
2022-09-02T00:49:10.894Z,1.67
2022-09-02T00:51:48.438Z,1.40
2022-09-02T00:54:20.051Z,1.40
2022-09-02T00:56:48.274Z,1.70
2022-09-02T00:59:58.468Z,1.60
2022-09-02T01:02:31.761Z,1.60
2022-09-02T01:05:00.163Z,1.70
2022-09-02T01:07:30.220Z,1.80
2022-09-02T01:09:59.905Z,1.67
2022-09-02T01:12:27.712Z,1.60
2022-09-02T01:14:54.655Z,1.50
2022-09-02T01:17:21.158Z,1.70
2022-09-02T01:19:51.811Z,1.60
2022-09-02T01:22:28.004Z,1.70
2022-09-02T01:24:59.932Z,1.50
2022-09-02T01:27:27.502Z,1.30
2022-09-02T01:29:59.215Z,1.40
2022-09-02T01:32:27.953Z,1.50
2022-09-02T01:34:54.906Z,1.60
2022-09-02T01:37:21.797Z,1.47
2022-09-02T01:39:49.867Z,1.77
2022-09-02T01:42:16.565Z,1.60
2022-09-02T01:44:46.110Z,1.90
2022-09-02T01:47:16.301Z,1.50
2022-09-02T01:49:44.846Z,1.70
2022-09-02T01:52:11.496Z,1.60
2022-09-02T01:54:38.811Z,1.80
2022-09-02T01:57:07.619Z,1.40
2022-09-02T01:59:34.323Z,1.67
2022-09-02T02:02:00.924Z,1.60
2022-09-02T02:04:27.650Z,1.57
2022-09-02T02:06:55.903Z,1.63
2022-09-02T02:09:23.481Z,1.77
2022-09-02T02:12:42.090Z,1.63
2022-09-02T02:15:13.202Z,1.77
2022-09-02T02:17:39.931Z,1.60
2022-09-02T02:20:08.331Z,1.70
2022-09-02T02:22:35.201Z,1.67
2022-09-02T02:25:04.684Z,1.80
2022-09-02T02:27:31.203Z,1.53
2022-09-02T02:30:02.075Z,1.90
2022-09-02T02:32:32.563Z,1.70
2022-09-02T02:35:00.559Z,1.90
2022-09-02T02:37:28.811Z,1.73
2022-09-02T02:39:56.006Z,1.40
2022-09-02T02:42:22.817Z,1.50
2022-09-02T02:44:49.395Z,1.73
2022-09-02T02:47:23.485Z,1.70
2022-09-02T02:49:50.398Z,1.43
2022-09-02T02:52:17.363Z,1.67
2022-09-02T02:54:44.015Z,1.70
2022-09-02T02:57:10.877Z,1.70
2022-09-02T02:59:38.214Z,1.60
2022-09-02T03:02:06.485Z,1.80
2022-09-02T03:04:34.707Z,1.90
2022-09-02T03:07:02.558Z,1.57
2022-09-02T03:09:29.574Z,1.70
2022-09-02T03:11:57.185Z,1.90
2022-09-02T03:14:24.700Z,1.70
2022-09-02T03:16:51.841Z,1.63
2022-09-02T03:19:18.788Z,1.60
2022-09-02T03:21:45.614Z,1.90
2022-09-02T03:24:12.833Z,1.70
2022-09-02T03:26:42.186Z,1.87
2022-09-02T03:29:10.169Z,1.87
2022-09-02T03:31:37.200Z,1.80
2022-09-02T03:34:04.631Z,1.90
2022-09-02T03:36:38.744Z,1.80
2022-09-02T03:39:10.059Z,2.10
2022-09-02T03:41:41.156Z,1.73
2022-09-02T03:44:10.270Z,2.23
2022-09-02T03:46:38.071Z,1.80
2022-09-02T03:49:05.770Z,1.93
2022-09-02T03:51:32.663Z,2.00
2022-09-02T03:53:59.528Z,2.00
2022-09-02T03:56:26.476Z,1.83
2022-09-02T03:58:53.566Z,2.10
2022-09-02T04:01:27.973Z,2.10
2022-09-02T04:04:00.675Z,2.00
2022-09-02T04:06:32.564Z,2.00
2022-09-02T04:09:02.838Z,1.87
2022-09-02T04:11:29.572Z,2.10
2022-09-02T04:13:56.724Z,2.27
2022-09-02T04:16:28.669Z,2.10
2022-09-02T04:19:01.901Z,2.20
2022-09-02T04:21:32.429Z,1.83
2022-09-02T04:23:59.054Z,2.20
2022-09-02T04:26:26.570Z,2.13
2022-09-02T04:28:55.795Z,2.07
2022-09-02T04:31:25.744Z,2.17
2022-09-02T04:33:53.899Z,2.10
2022-09-02T04:36:22.422Z,2.10
2022-09-02T04:38:53.397Z,2.20
2022-09-02T04:41:25.514Z,2.30
2022-09-02T04:43:56.029Z,2.27
2022-09-02T04:46:34.278Z,2.10
2022-09-02T04:49:04.284Z,2.30
2022-09-02T04:51:32.641Z,2.53
2022-09-02T04:54:01.942Z,2.33
2022-09-02T04:56:32.170Z,2.33
2022-09-02T04:59:00.963Z,2.20
2022-09-02T05:01:32.790Z,2.43
2022-09-02T05:04:09.519Z,2.20
2022-09-02T05:06:44.591Z,2.33
2022-09-02T05:09:18.783Z,2.67
2022-09-02T05:11:52.030Z,2.57
2022-09-02T05:14:23.601Z,2.40
2022-09-02T05:16:54.960Z,2.30
2022-09-02T05:19:23.862Z,2.53
2022-09-02T05:21:55.446Z,2.20
2022-09-02T05:24:33.463Z,2.33
2022-09-02T05:27:05.157Z,2.20
2022-09-02T05:29:34.614Z,2.43
2022-09-02T05:32:01.602Z,2.50
2022-09-02T05:34:28.227Z,2.20
2022-09-02T05:36:58.870Z,2.83
2022-09-02T05:39:30.836Z,2.60
2022-09-02T05:41:59.250Z,2.30
2022-09-02T05:44:26.284Z,2.33
2022-09-02T05:46:55.405Z,2.33
2022-09-02T05:49:23.472Z,2.50
2022-09-02T05:52:00.695Z,2.50
2022-09-02T05:54:40.304Z,2.40
2022-09-02T05:57:15.238Z,2.93
2022-09-02T05:59:55.907Z,2.80
2022-09-02T06:02:25.998Z,2.73
2022-09-02T06:04:57.193Z,2.27
2022-09-02T06:07:26.290Z,2.60
2022-09-02T06:09:54.008Z,2.60
2022-09-02T06:12:23.825Z,2.50
2022-09-02T06:14:50.673Z,2.63
2022-09-02T06:17:19.653Z,3.13
2022-09-02T06:19:52.711Z,2.73
2022-09-02T06:22:24.036Z,2.60
2022-09-02T06:24:52.728Z,3.20
2022-09-02T06:27:24.149Z,2.80
2022-09-02T06:29:53.025Z,2.93
2022-09-02T06:32:21.997Z,2.70
2022-09-02T06:34:52.272Z,2.87
2022-09-02T06:37:18.966Z,2.77
2022-09-02T06:39:46.672Z,2.63
2022-09-02T06:42:18.845Z,2.90
2022-09-02T06:45:01.630Z,3.00
2022-09-02T06:47:28.239Z,2.37
2022-09-02T06:49:55.013Z,2.83
2022-09-02T06:52:21.860Z,3.90
2022-09-02T06:54:50.671Z,3.13
2022-09-02T06:57:18.651Z,2.50
2022-09-02T06:59:45.373Z,3.07
2022-09-02T07:02:13.889Z,2.70
2022-09-02T07:04:59.770Z,2.77
2022-09-02T07:07:26.438Z,2.70
2022-09-02T07:10:00.041Z,2.77
2022-09-02T07:12:27.346Z,2.50
2022-09-02T07:14:59.039Z,2.70
2022-09-02T07:17:33.923Z,2.87
2022-09-02T07:20:05.701Z,2.80
2022-09-02T07:22:39.256Z,2.83
2022-09-02T07:25:08.582Z,2.67
2022-09-02T07:27:37.179Z,3.00
2022-09-02T07:30:06.689Z,2.70
2022-09-02T07:32:36.018Z,2.80
2022-09-02T07:35:07.464Z,2.83
2022-09-02T07:37:37.474Z,2.60
2022-09-02T07:40:08.502Z,2.43
2022-09-02T07:42:37.006Z,2.47
2022-09-02T07:45:03.998Z,2.30
2022-09-02T07:47:32.215Z,2.30
2022-09-02T07:50:18.849Z,2.47
2022-09-02T07:52:51.357Z,2.40
2022-09-02T07:55:18.174Z,2.63
2022-09-02T07:57:46.357Z,2.50
2022-09-02T08:00:14.501Z,3.07
2022-09-02T08:02:41.698Z,2.57
2022-09-02T08:05:11.093Z,2.50
2022-09-02T08:07:37.597Z,3.03
2022-09-02T08:10:11.436Z,2.60
2022-09-02T08:12:43.577Z,2.20
2022-09-02T08:15:12.037Z,2.40
2022-09-02T08:17:40.696Z,2.50
2022-09-02T08:20:14.746Z,2.80
2022-09-02T08:22:42.159Z,2.63
2022-09-02T08:25:09.635Z,2.77
2022-09-02T08:27:37.576Z,2.53
2022-09-02T08:30:06.501Z,2.33
2022-09-02T08:32:32.975Z,2.50
2022-09-02T08:35:04.818Z,2.57
2022-09-02T08:37:33.162Z,2.30
2022-09-02T08:40:03.793Z,2.20
2022-09-02T08:42:39.531Z,2.17
2022-09-02T08:45:06.066Z,2.10
2022-09-02T08:47:35.898Z,2.23
2022-09-02T08:50:15.696Z,2.17
2022-09-02T08:53:04.110Z,2.00
2022-09-02T08:55:54.384Z,2.33
2022-09-02T08:58:24.668Z,2.10
2022-09-02T09:01:01.044Z,2.10
2022-09-02T09:03:37.399Z,2.03
2022-09-02T09:06:23.180Z,1.63
2022-09-02T09:08:55.429Z,2.10
2022-09-02T09:11:39.220Z,1.87
2022-09-02T09:14:40.015Z,2.07
2022-09-02T09:17:31.285Z,2.00
2022-09-02T09:20:03.585Z,2.00
2022-09-02T09:22:33.646Z,2.17
2022-09-02T09:25:00.606Z,1.87
2022-09-02T09:27:28.267Z,1.80
2022-09-02T09:29:55.577Z,2.30
2022-09-02T09:32:42.945Z,1.80
2022-09-02T09:35:14.666Z,1.93
2022-09-02T09:37:51.819Z,2.23
2022-09-02T09:40:32.661Z,1.97
2022-09-02T09:43:19.699Z,1.93
2022-09-02T09:45:47.957Z,1.80
2022-09-02T09:48:17.769Z,1.80
2022-09-02T09:50:49.643Z,1.73
2022-09-02T09:53:34.103Z,1.90
2022-09-02T09:56:06.599Z,1.90
2022-09-02T09:58:37.015Z,1.97
2022-09-02T10:01:25.373Z,1.80
2022-09-02T10:03:55.882Z,1.93
2022-09-02T10:06:48.880Z,1.80
2022-09-02T10:09:15.990Z,1.97
2022-09-02T10:11:56.117Z,2.00
2022-09-02T10:14:26.552Z,1.77
2022-09-02T10:17:10.964Z,1.63
2022-09-02T10:19:58.831Z,2.43
2022-09-02T10:23:00.076Z,1.90
2022-09-02T10:26:00.618Z,1.80
2022-09-02T10:28:49.468Z,2.07
2022-09-02T10:31:23.744Z,2.20
2022-09-02T10:34:31.718Z,1.87
2022-09-02T10:37:26.977Z,1.80
2022-09-02T10:40:03.517Z,1.73
2022-09-02T10:42:39.546Z,1.50
2022-09-02T10:45:09.069Z,1.70
2022-09-02T10:47:37.842Z,1.70
2022-09-02T10:50:14.877Z,1.80
2022-09-02T10:52:55.064Z,1.70
2022-09-02T10:56:11.114Z,1.60
2022-09-02T10:58:56.242Z,1.40
2022-09-02T11:01:32.649Z,1.40
2022-09-02T11:04:09.242Z,1.50
2022-09-02T11:07:01.398Z,1.80
2022-09-02T11:09:37.343Z,1.93
2022-09-02T11:12:30.818Z,1.83
2022-09-02T11:15:14.645Z,1.70
2022-09-02T11:17:51.213Z,1.60
2022-09-02T11:20:36.489Z,1.80
2022-09-02T11:23:41.586Z,1.63
2022-09-02T11:26:30.216Z,1.43
2022-09-02T11:29:12.849Z,1.70
2022-09-02T11:32:16.963Z,1.48
2022-09-02T11:34:47.836Z,1.70
2022-09-02T11:37:33.111Z,1.45
2022-09-02T11:40:32.814Z,1.60
2022-09-02T11:43:07.960Z,1.40
2022-09-02T11:46:16.416Z,1.30
2022-09-02T11:48:56.021Z,1.50
2022-09-02T11:52:01.898Z,1.60
2022-09-02T11:54:44.439Z,1.80
2022-09-02T11:57:22.183Z,1.17
2022-09-02T11:59:51.498Z,1.40
2022-09-02T12:02:42.246Z,1.75
2022-09-02T12:05:29.691Z,1.63
2022-09-02T12:08:01.001Z,1.50
2022-09-02T12:10:51.615Z,1.70
2022-09-02T12:16:23.762Z,1.60
2022-09-02T12:19:00.133Z,1.35
2022-09-02T12:21:28.428Z,1.70
2022-09-02T12:23:57.727Z,1.70
2022-09-02T12:26:36.199Z,1.45
2022-09-02T12:29:24.650Z,1.50
2022-09-02T12:31:53.209Z,1.60
2022-09-02T12:34:20.834Z,1.65
2022-09-02T12:36:57.787Z,1.50
2022-09-02T12:39:24.999Z,1.80
2022-09-02T12:42:09.146Z,1.60
2022-09-02T12:44:49.336Z,1.45
2022-09-02T12:47:33.049Z,1.40
2022-09-02T12:50:20.857Z,1.77
2022-09-02T12:52:52.503Z,1.70
2022-09-02T12:55:23.469Z,1.58
2022-09-02T12:57:55.683Z,1.60
2022-09-02T13:00:34.078Z,1.48
2022-09-02T13:03:22.760Z,1.60
2022-09-02T13:06:04.998Z,1.50
2022-09-02T13:09:10.356Z,1.40
2022-09-02T13:12:09.031Z,1.60
2022-09-02T13:14:54.055Z,1.60
2022-09-02T13:17:46.562Z,1.60
2022-09-02T13:20:31.500Z,1.73
2022-09-02T13:23:31.808Z,1.50
2022-09-02T13:26:48.466Z,1.65
2022-09-02T13:30:16.731Z,1.92
2022-09-02T13:32:43.640Z,1.55
2022-09-02T13:35:30.638Z,1.90
2022-09-02T13:38:02.667Z,1.70
2022-09-02T13:40:35.450Z,1.60
2022-09-02T13:43:14.146Z,1.90
2022-09-02T13:45:41.914Z,1.73
2022-09-02T13:48:11.533Z,1.50
2022-09-02T13:50:43.545Z,3.60
2022-09-02T13:56:02.280Z,1.75
2022-09-02T13:58:28.634Z,1.70
2022-09-02T14:01:01.757Z,1.52
2022-09-02T14:03:32.640Z,1.80
2022-09-02T14:06:00.762Z,1.80
2022-09-02T14:08:29.325Z,1.80
2022-09-02T14:10:58.411Z,1.77
2022-09-02T14:13:25.308Z,1.63
2022-09-02T14:15:51.836Z,1.90
2022-09-02T14:18:25.546Z,1.67
2022-09-02T14:21:03.555Z,1.45
2022-09-02T14:23:35.557Z,1.70
2022-09-02T14:26:04.025Z,1.80
2022-09-02T14:28:34.485Z,1.88
2022-09-02T14:31:06.699Z,1.80
2022-09-02T14:33:36.333Z,2.30
2022-09-02T14:36:10.059Z,1.95
2022-09-02T14:38:50.934Z,1.80
2022-09-02T14:41:17.446Z,1.67
2022-09-02T14:43:53.353Z,1.50
2022-09-02T14:46:23.430Z,1.60
2022-09-02T14:49:03.511Z,1.75
2022-09-02T14:51:43.814Z,1.73
2022-09-02T14:54:11.242Z,1.58
2022-09-02T14:56:54.475Z,1.60
2022-09-02T14:59:21.371Z,1.52
2022-09-02T15:01:51.528Z,1.63
2022-09-02T15:04:25.041Z,1.63
2022-09-02T15:06:52.205Z,1.80
2022-09-02T15:09:18.900Z,1.50
2022-09-02T15:11:53.471Z,1.60
2022-09-02T15:14:24.085Z,1.55
2022-09-02T15:16:51.291Z,1.85
2022-09-02T15:19:18.222Z,1.65
2022-09-02T15:21:44.825Z,1.63
2022-09-02T15:24:11.429Z,1.52
2022-09-02T15:26:38.030Z,1.70
2022-09-02T15:29:04.875Z,1.88
2022-09-02T15:31:31.803Z,1.90
2022-09-02T15:33:58.924Z,1.90
2022-09-02T15:36:26.511Z,1.80
2022-09-02T15:38:53.164Z,1.63
2022-09-02T15:41:22.864Z,1.80
2022-09-02T15:43:50.993Z,1.60
2022-09-02T15:46:21.022Z,1.80
2022-09-02T15:48:48.421Z,1.75
2022-09-02T15:51:17.409Z,1.67
2022-09-02T15:53:43.882Z,2.00
2022-09-02T15:56:22.443Z,1.92
2022-09-02T15:59:02.736Z,1.70
2022-09-02T16:01:32.304Z,1.60
2022-09-02T16:04:00.332Z,1.77
2022-09-02T16:06:29.286Z,1.67
2022-09-02T16:08:56.238Z,1.88
2022-09-02T16:11:25.521Z,1.70
2022-09-02T16:13:52.613Z,1.73
2022-09-02T16:16:19.492Z,1.50
2022-09-02T16:18:51.490Z,1.60
2022-09-02T16:21:19.460Z,1.63
2022-09-02T16:23:49.520Z,1.58
2022-09-02T16:26:24.510Z,1.70
2022-09-02T16:28:54.582Z,1.77
2022-09-02T16:31:24.218Z,1.98
2022-09-02T16:34:00.048Z,1.60
2022-09-02T16:36:33.209Z,1.60
2022-09-02T16:39:01.090Z,1.67
2022-09-02T16:41:35.859Z,1.20
2022-09-02T16:44:07.811Z,1.23
2022-09-02T16:46:36.591Z,1.40
2022-09-02T16:49:03.986Z,1.40
2022-09-02T16:51:30.583Z,1.40
2022-09-02T16:53:59.815Z,1.40
2022-09-02T16:56:26.687Z,1.30
2022-09-02T16:58:54.174Z,1.20
2022-09-02T17:01:23.028Z,1.40
2022-09-02T17:03:51.595Z,1.47
2022-09-02T17:06:18.793Z,1.30
2022-09-02T17:08:45.413Z,1.40
2022-09-02T17:11:21.715Z,1.50
2022-09-02T17:13:51.210Z,1.60
2022-09-02T17:16:19.424Z,1.20
2022-09-02T17:18:46.201Z,1.60
2022-09-02T17:21:17.838Z,1.40
2022-09-02T17:23:45.118Z,1.50
2022-09-02T17:26:11.792Z,1.30
2022-09-02T17:28:47.366Z,1.40
2022-09-02T17:31:16.551Z,1.67
2022-09-02T17:33:43.406Z,1.57
2022-09-02T17:36:09.917Z,1.70
2022-09-02T17:38:36.410Z,1.60
2022-09-02T17:41:22.050Z,1.70
2022-09-02T17:43:49.397Z,1.67
2022-09-02T17:46:15.934Z,1.50
2022-09-02T17:49:05.776Z,1.60
2022-09-02T17:51:29.420Z,1.77
2022-09-02T17:53:56.349Z,1.43
2022-09-02T17:56:38.074Z,1.50
2022-09-02T17:59:23.970Z,1.23
2022-09-02T18:02:12.131Z,1.70
2022-09-02T18:04:51.286Z,1.57
2022-09-02T18:07:38.018Z,1.40
2022-09-02T18:10:06.788Z,1.40
2022-09-02T18:12:37.062Z,1.23
2022-09-02T18:15:06.141Z,1.70
2022-09-02T18:17:36.716Z,1.30
2022-09-02T18:20:31.996Z,1.43
2022-09-02T18:23:09.030Z,1.53
2022-09-02T18:25:46.491Z,1.77
2022-09-02T18:28:27.042Z,1.70
2022-09-02T18:31:12.137Z,1.80
2022-09-02T18:33:57.462Z,1.33
2022-09-02T18:37:02.869Z,1.53
2022-09-02T18:39:48.849Z,1.40
2022-09-02T18:42:37.783Z,1.60
2022-09-02T18:45:22.103Z,1.60
2022-09-02T18:47:54.671Z,1.50
2022-09-02T18:50:49.272Z,1.40
2022-09-02T18:53:22.154Z,1.30
2022-09-02T18:55:51.618Z,1.27
2022-09-02T18:58:33.969Z,1.20
2022-09-02T19:01:06.735Z,1.40
2022-09-02T19:03:36.071Z,1.20
2022-09-02T19:06:10.428Z,1.50
2022-09-02T19:08:38.202Z,1.40
2022-09-02T19:11:08.639Z,1.30
2022-09-02T19:13:56.315Z,1.70
2022-09-02T19:16:37.237Z,1.40
2022-09-02T19:19:05.084Z,1.70
2022-09-02T19:21:51.291Z,1.53
2022-09-02T19:24:25.466Z,1.50
2022-09-02T19:26:59.501Z,1.50
2022-09-02T19:29:26.817Z,1.47
2022-09-02T19:31:54.846Z,1.50
2022-09-02T19:34:22.725Z,1.60
2022-09-02T19:36:51.296Z,1.57
2022-09-02T19:39:17.772Z,1.40
2022-09-02T19:41:45.672Z,1.40
2022-09-02T19:44:15.365Z,1.70
2022-09-02T19:47:24.720Z,1.50
2022-09-02T19:49:28.467Z,1.70
2022-09-02T19:51:55.440Z,2.00
2022-09-02T19:54:22.596Z,2.13
2022-09-02T19:56:49.511Z,1.43
2022-09-02T19:59:16.345Z,2.20
2022-09-02T20:01:42.908Z,1.70
2022-09-02T20:04:09.490Z,1.63
2022-09-02T20:06:36.018Z,1.50
2022-09-02T20:09:03.301Z,1.30
2022-09-02T20:11:30.156Z,1.70
2022-09-02T20:14:04.167Z,1.40
2022-09-02T20:16:30.738Z,1.60
2022-09-02T20:19:05.625Z,1.63
2022-09-02T20:21:42.037Z,1.47
2022-09-02T20:24:10.197Z,1.20
2022-09-02T20:26:56.501Z,1.60
2022-09-02T20:29:43.081Z,1.60
2022-09-02T20:32:21.847Z,1.40
2022-09-02T20:35:00.404Z,1.57
2022-09-02T20:37:59.342Z,1.50
2022-09-02T20:40:50.393Z,1.80
2022-09-02T20:44:06.112Z,1.60
2022-09-02T20:47:01.879Z,1.33
2022-09-02T20:49:37.004Z,1.40
2022-09-02T20:52:31.380Z,1.53
2022-09-02T20:55:37.124Z,1.57
2022-09-02T20:58:41.582Z,2.10
2022-09-02T21:01:11.758Z,1.47
2022-09-02T21:03:47.837Z,1.47
2022-09-02T21:06:16.328Z,1.60
2022-09-02T21:09:24.009Z,1.83
2022-09-02T21:11:58.678Z,1.40
2022-09-02T21:14:39.852Z,1.53
2022-09-02T21:17:16.697Z,1.70
2022-09-02T21:20:06.371Z,1.60
2022-09-02T21:22:39.621Z,1.70
2022-09-02T21:25:29.520Z,1.60
2022-09-02T21:28:03.197Z,1.67
2022-09-02T21:30:38.008Z,1.67
2022-09-02T21:33:08.715Z,1.63
2022-09-02T21:35:49.899Z,1.60
2022-09-02T21:38:24.497Z,1.60
2022-09-02T21:41:19.701Z,1.60
2022-09-02T21:44:04.234Z,1.50
2022-09-02T21:46:33.745Z,1.67
2022-09-02T21:49:07.543Z,1.60
2022-09-02T21:51:41.897Z,1.87
2022-09-02T21:54:44.039Z,1.70
2022-09-02T21:57:28.861Z,1.73
2022-09-02T22:00:03.822Z,1.70
2022-09-02T22:02:47.687Z,1.83
2022-09-02T22:05:32.367Z,1.80
2022-09-02T22:08:11.850Z,2.10
2022-09-02T22:10:42.616Z,2.10
2022-09-02T22:13:10.307Z,2.17
2022-09-02T22:15:39.705Z,2.00
2022-09-02T22:18:31.643Z,1.90
2022-09-02T22:21:05.666Z,1.87
2022-09-02T22:23:34.925Z,1.77
2022-09-02T22:26:15.419Z,1.70
2022-09-02T22:28:56.541Z,1.90
2022-09-02T22:31:26.112Z,1.90
2022-09-02T22:33:58.631Z,1.60
2022-09-02T22:36:48.971Z,1.70
2022-09-02T22:39:17.859Z,1.70
2022-09-02T22:41:50.928Z,1.80
2022-09-02T22:45:00.138Z,1.97
2022-09-02T22:47:51.883Z,1.70
2022-09-02T22:50:42.644Z,2.20
2022-09-02T22:53:09.160Z,2.00
2022-09-02T22:55:58.804Z,1.90
2022-09-02T22:58:43.925Z,2.00
2022-09-02T23:01:42.831Z,1.70
2022-09-02T23:04:09.274Z,1.50
2022-09-02T23:06:35.783Z,1.90
2022-09-02T23:09:08.678Z,2.20
2022-09-02T23:12:03.442Z,2.43
2022-09-02T23:14:44.487Z,2.10
2022-09-02T23:17:23.990Z,2.40
2022-09-02T23:20:03.034Z,2.00
2022-09-02T23:22:52.730Z,2.10
2022-09-02T23:25:50.394Z,2.47
2022-09-02T23:28:51.530Z,1.93
2022-09-02T23:31:30.421Z,1.90
2022-09-02T23:34:06.853Z,1.50
2022-09-02T23:36:52.288Z,1.40
2022-09-02T23:39:44.086Z,1.60
2022-09-02T23:42:12.088Z,1.60
2022-09-02T23:44:38.557Z,1.50
2022-09-02T23:47:28.387Z,1.70
2022-09-02T23:50:07.285Z,1.60
2022-09-02T23:52:58.872Z,1.70
2022-09-02T23:55:53.250Z,1.50
2022-09-02T23:58:41.187Z,1.90
